Time;durP1;ratioP1;P1;durP2;ratioP2;P2;SDS_P1;SDS_P2;PMS_P1;PMS_P2;Temp;Humidity;BMP_temperature;BMP_pressure;BME280_temperature;BME280_humidity;BME280_pressure;Samples;Min_cycle;Max_cycle;Signal;HPM_P1;HPM_P2
2021/08/02 00:00:24;;;;;;;16.02;13.43;;;13.50;99.90;;;;;;5062580;28;20392;-78
2021/08/02 00:02:50;;;;;;;15.13;12.95;;;13.50;99.90;;;;;;5057750;28;20396;-77
2021/08/02 00:05:17;;;;;;;16.38;13.55;;;13.50;99.90;;;;;;5059497;28;20375;-79
2021/08/02 00:07:45;;;;;;;14.95;13.35;;;13.50;99.90;;;;;;5061249;28;20380;-79
2021/08/02 00:10:15;;;;;;;14.55;12.90;;;13.60;99.90;;;;;;5058613;28;20409;-80
2021/08/02 00:12:50;;;;;;;14.35;12.57;;;13.60;99.90;;;;;;5061959;28;20867;-79
2021/08/02 00:15:18;;;;;;;14.70;12.75;;;13.60;99.90;;;;;;5062436;28;20390;-77
2021/08/02 00:17:45;;;;;;;14.93;12.85;;;13.70;99.90;;;;;;5071015;28;20919;-79
2021/08/02 00:20:18;;;;;;;15.65;13.23;;;13.80;99.90;;;;;;5071180;28;20377;-80
2021/08/02 00:22:44;;;;;;;14.05;12.55;;;13.80;99.90;;;;;;5070759;28;20517;-79
2021/08/02 00:25:11;;;;;;;13.23;11.88;;;13.80;99.90;;;;;;5069948;28;20429;-78
2021/08/02 00:27:37;;;;;;;14.43;11.85;;;13.80;99.90;;;;;;5071061;28;20374;-79
2021/08/02 00:30:06;;;;;;;13.57;12.18;;;13.90;99.90;;;;;;5070830;28;20716;-80
2021/08/02 00:32:33;;;;;;;13.90;12.10;;;14.00;99.90;;;;;;5071015;28;20478;-77
2021/08/02 00:35:00;;;;;;;13.38;12.05;;;14.00;99.90;;;;;;5070955;28;20787;-80
2021/08/02 00:37:50;;;;;;;12.45;11.20;;;14.10;99.90;;;;;;5071065;28;20410;-77
2021/08/02 00:40:47;;;;;;;13.18;11.77;;;14.20;99.90;;;;;;5070734;28;20383;-78
2021/08/02 00:43:27;;;;;;;14.40;12.48;;;14.20;99.90;;;;;;5070805;28;20381;-78
2021/08/02 00:45:53;;;;;;;14.70;12.70;;;14.20;99.90;;;;;;5052669;28;20448;-75
2021/08/02 00:48:26;;;;;;;13.45;12.13;;;14.20;99.90;;;;;;5070496;28;20378;-80
2021/08/02 00:50:52;;;;;;;15.63;12.85;;;14.20;99.90;;;;;;5052790;28;20394;-79
2021/08/02 00:53:24;;;;;;;13.73;12.38;;;14.30;99.90;;;;;;5052310;28;20409;-79
2021/08/02 00:55:56;;;;;;;15.75;14.02;;;14.30;99.90;;;;;;5052683;28;20389;-79
2021/08/02 00:58:24;;;;;;;17.30;15.45;;;14.40;99.90;;;;;;5070480;28;20406;-78
2021/08/02 01:00:51;;;;;;;16.67;14.40;;;14.40;99.90;;;;;;5052330;28;20444;-76
2021/08/02 01:03:17;;;;;;;17.13;14.27;;;14.40;99.90;;;;;;5052624;28;20382;-80
2021/08/02 01:05:47;;;;;;;17.93;14.97;;;14.50;99.90;;;;;;5052863;28;20386;-78
2021/08/02 01:08:15;;;;;;;14.85;13.35;;;14.50;99.90;;;;;;5070088;28;20385;-81
2021/08/02 01:10:50;;;;;;;16.25;13.57;;;14.50;99.90;;;;;;5070414;28;20398;-80
2021/08/02 01:13:17;;;;;;;14.80;13.25;;;14.60;99.90;;;;;;5069938;28;20374;-78
2021/08/02 01:15:49;;;;;;;15.60;14.02;;;14.60;99.90;;;;;;5070270;28;20385;-79
2021/08/02 01:18:20;;;;;;;14.70;13.20;;;14.60;99.90;;;;;;5070096;28;20406;-79
2021/08/02 01:20:48;;;;;;;16.45;13.02;;;14.70;99.90;;;;;;5052210;28;20394;-79
2021/08/02 01:23:14;;;;;;;14.37;12.60;;;14.70;99.90;;;;;;5052199;28;20374;-78
2021/08/02 01:25:40;;;;;;;13.50;12.10;;;14.70;99.90;;;;;;5069722;28;20402;-78
2021/08/02 01:28:15;;;;;;;16.25;13.18;;;14.80;99.90;;;;;;5070029;28;20410;-78
2021/08/02 01:30:50;;;;;;;14.88;12.65;;;14.80;99.90;;;;;;5069896;28;20372;-77
2021/08/02 01:33:19;;;;;;;18.83;13.73;;;14.80;99.90;;;;;;5069763;28;20383;-77
2021/08/02 01:35:45;;;;;;;16.35;13.45;;;14.80;99.90;;;;;;5069685;28;20382;-80
2021/08/02 01:38:15;;;;;;;15.83;13.50;;;14.80;99.90;;;;;;5069198;28;20463;-80
2021/08/02 01:40:41;;;;;;;17.45;14.48;;;14.70;99.90;;;;;;5069675;28;20432;-78
2021/08/02 01:43:08;;;;;;;16.30;14.40;;;14.70;99.90;;;;;;5069563;28;20370;-78
2021/08/02 01:45:53;;;;;;;18.23;14.27;;;14.60;99.90;;;;;;5051819;28;20452;-78
2021/08/02 01:48:49;;;;;;;15.80;13.75;;;14.60;99.90;;;;;;5069737;28;20436;-78
2021/08/02 01:51:27;;;;;;;16.40;14.07;;;14.70;99.90;;;;;;5047427;28;20386;-77
2021/08/02 01:53:55;;;;;;;18.00;14.50;;;14.70;99.90;;;;;;5069922;28;20421;-76
2021/08/02 01:56:27;;;;;;;17.17;13.27;;;14.80;99.90;;;;;;5069690;28;20378;-78
2021/08/02 01:59:10;;;;;;;17.10;14.65;;;14.80;99.90;;;;;;5069723;28;20935;-78
2021/08/02 02:02:00;;;;;;;16.75;14.27;;;14.90;99.90;;;;;;5069748;28;20457;-79
2021/08/02 02:04:37;;;;;;;18.27;14.63;;;15.00;99.90;;;;;;5051533;28;20886;-80
2021/08/02 02:07:04;;;;;;;15.63;14.02;;;15.00;99.90;;;;;;5069473;28;20883;-78
2021/08/02 02:09:31;;;;;;;15.55;13.95;;;15.00;99.90;;;;;;5069575;28;20432;-80
2021/08/02 02:12:00;;;;;;;14.95;13.35;;;15.00;99.90;;;;;;5069623;28;20384;-79
2021/08/02 02:14:28;;;;;;;15.60;13.63;;;15.10;99.90;;;;;;5070193;28;20743;-77
2021/08/02 02:16:57;;;;;;;15.38;13.77;;;15.10;99.90;;;;;;5069444;28;20771;-78
2021/08/02 02:19:24;;;;;;;15.90;13.82;;;15.00;99.90;;;;;;5069715;28;20370;-80
2021/08/02 02:21:51;;;;;;;14.45;12.23;;;15.00;99.90;;;;;;5069838;28;20366;-80
2021/08/02 02:24:18;;;;;;;16.88;13.65;;;15.10;99.90;;;;;;5068984;28;20370;-78
2021/08/02 02:26:45;;;;;;;16.27;13.30;;;15.10;99.90;;;;;;5069271;28;20377;-76
2021/08/02 02:29:14;;;;;;;15.87;13.40;;;15.10;99.90;;;;;;5068817;28;20739;-79
2021/08/02 02:31:42;;;;;;;16.38;12.68;;;15.10;99.90;;;;;;5068698;28;20886;-80
2021/08/02 02:34:09;;;;;;;16.40;13.18;;;15.10;99.90;;;;;;5068659;28;20374;-78
2021/08/02 02:36:36;;;;;;;16.07;12.97;;;15.10;99.90;;;;;;5068685;28;20895;-81
2021/08/02 02:39:03;;;;;;;13.77;12.30;;;15.00;99.90;;;;;;5068732;28;20421;-82
2021/08/02 02:41:29;;;;;;;13.95;12.27;;;15.10;99.90;;;;;;5050881;28;20381;-81
2021/08/02 02:43:55;;;;;;;15.00;12.37;;;15.10;99.90;;;;;;5050914;28;20451;-78
2021/08/02 02:46:22;;;;;;;13.07;11.63;;;15.00;99.90;;;;;;5068829;28;20389;-81
2021/08/02 02:48:49;;;;;;;12.93;11.00;;;15.00;99.90;;;;;;5069910;28;20363;-80
2021/08/02 02:51:16;;;;;;;11.23;10.13;;;15.10;99.90;;;;;;5054906;28;20895;-77
2021/08/02 02:53:43;;;;;;;14.15;10.93;;;15.10;99.90;;;;;;5073015;28;20390;-78
2021/08/02 02:56:14;;;;;;;13.63;11.25;;;15.00;99.90;;;;;;5072969;28;20469;-79
2021/08/02 02:58:41;;;;;;;13.93;10.73;;;15.00;99.90;;;;;;5072415;28;20417;-80
2021/08/02 03:01:07;;;;;;;12.32;10.32;;;15.00;99.90;;;;;;5073295;28;20740;-77
2021/08/02 03:03:36;;;;;;;12.75;10.73;;;15.00;99.90;;;;;;5073019;28;20701;-78
2021/08/02 03:06:03;;;;;;;13.00;9.80;;;15.00;99.90;;;;;;5072772;28;20418;-78
2021/08/02 03:08:30;;;;;;;13.38;9.85;;;15.00;99.90;;;;;;5072537;28;20385;-79
2021/08/02 03:10:56;;;;;;;12.02;10.27;;;15.00;99.90;;;;;;5072725;28;20736;-80
2021/08/02 03:13:23;;;;;;;11.73;9.57;;;15.00;99.90;;;;;;5072302;28;20389;-80
2021/08/02 03:15:49;;;;;;;10.38;9.27;;;15.00;99.90;;;;;;5072638;28;20416;-78
2021/08/02 03:18:14;;;;;;;11.88;8.65;;;15.00;99.90;;;;;;5054131;28;20410;-78
2021/08/02 03:20:41;;;;;;;9.67;8.77;;;15.00;99.90;;;;;;5072307;28;20371;-79
2021/08/02 03:23:27;;;;;;;11.02;8.95;;;15.00;99.90;;;;;;5072217;28;20417;-80
2021/08/02 03:26:00;;;;;;;10.75;8.73;;;15.00;99.90;;;;;;5072127;28;20443;-78
2021/08/02 03:28:57;;;;;;;9.03;8.13;;;15.00;99.90;;;;;;5072069;28;20382;-81
2021/08/02 03:31:42;;;;;;;8.20;7.40;;;15.00;99.90;;;;;;5071507;28;20387;-78
2021/08/02 03:34:12;;;;;;;9.93;8.60;;;15.00;99.90;;;;;;5071722;28;20732;-79
2021/08/02 03:36:39;;;;;;;10.65;8.15;;;15.00;99.90;;;;;;5054191;28;20952;-77
2021/08/02 03:39:05;;;;;;;9.27;7.68;;;14.90;99.90;;;;;;5071912;28;20429;-77
2021/08/02 03:41:30;;;;;;;8.57;7.73;;;14.90;99.90;;;;;;5071962;28;20816;-78
2021/08/02 03:43:59;;;;;;;8.20;7.38;;;14.90;99.90;;;;;;5071953;28;20406;-76
2021/08/02 03:46:26;;;;;;;11.23;7.68;;;14.90;99.90;;;;;;5071793;28;20381;-79
2021/08/02 03:48:52;;;;;;;8.20;7.00;;;15.00;99.90;;;;;;5071728;28;20421;-80
2021/08/02 03:51:17;;;;;;;8.77;7.00;;;14.90;99.90;;;;;;5071552;28;20382;-78
2021/08/02 03:53:45;;;;;;;7.87;7.07;;;15.00;99.90;;;;;;5071674;28;20363;-78
2021/08/02 03:56:14;;;;;;;9.05;6.93;;;14.90;99.90;;;;;;5071748;28;20366;-79
2021/08/02 03:58:40;;;;;;;8.07;6.80;;;14.90;99.90;;;;;;5052932;28;20402;-78
2021/08/02 04:01:06;;;;;;;8.80;7.22;;;14.90;99.90;;;;;;5071508;28;20377;-80
2021/08/02 04:03:31;;;;;;;7.20;6.20;;;14.90;99.90;;;;;;5071494;28;20374;-80
2021/08/02 04:05:59;;;;;;;8.48;6.40;;;14.90;99.90;;;;;;5071636;28;20755;-80
2021/08/02 04:08:26;;;;;;;7.28;6.47;;;14.90;99.90;;;;;;5071530;28;21309;-79
2021/08/02 04:10:51;;;;;;;9.70;6.22;;;15.00;99.90;;;;;;5071450;28;20766;-78
2021/08/02 04:13:19;;;;;;;7.75;6.03;;;15.00;99.90;;;;;;5071315;28;20898;-80
2021/08/02 04:15:45;;;;;;;9.00;6.00;;;14.90;99.90;;;;;;5071240;28;20381;-80
2021/08/02 04:18:10;;;;;;;8.57;5.70;;;14.90;99.90;;;;;;5070882;28;20471;-80
2021/08/02 04:20:36;;;;;;;7.83;5.57;;;14.90;99.90;;;;;;5071303;28;20875;-78
2021/08/02 04:23:01;;;;;;;6.47;5.72;;;14.90;99.90;;;;;;5071354;28;20918;-80
2021/08/02 04:25:27;;;;;;;8.40;6.07;;;14.90;99.90;;;;;;5071147;28;20894;-80
2021/08/02 04:27:54;;;;;;;8.63;5.50;;;15.00;99.90;;;;;;5071179;28;20374;-79
2021/08/02 04:30:20;;;;;;;8.15;5.78;;;15.10;99.90;;;;;;5069512;28;20414;-80
2021/08/02 04:32:46;;;;;;;6.32;5.45;;;15.10;99.90;;;;;;5070913;28;20421;-78
2021/08/02 04:35:12;;;;;;;7.53;5.10;;;15.20;99.90;;;;;;5052846;28;20728;-77
2021/08/02 04:37:37;;;;;;;6.23;5.60;;;15.20;99.90;;;;;;5053149;28;20414;-79
2021/08/02 04:40:05;;;;;;;7.68;5.63;;;15.20;99.90;;;;;;5071190;28;20374;-78
2021/08/02 04:42:35;;;;;;;8.45;5.50;;;15.30;99.90;;;;;;5070186;28;20432;-80
2021/08/02 04:45:01;;;;;;;8.50;5.40;;;15.30;99.90;;;;;;5071170;28;20370;-79
2021/08/02 04:47:26;;;;;;;7.73;5.30;;;15.40;99.90;;;;;;5071021;28;20424;-79
2021/08/02 04:49:52;;;;;;;6.80;5.10;;;15.50;99.90;;;;;;5072290;28;20370;-80
2021/08/02 04:52:19;;;;;;;8.43;4.73;;;15.70;99.90;;;;;;5071311;28;20378;-81
2021/08/02 04:54:44;;;;;;;5.75;4.75;;;15.70;99.90;;;;;;5071840;28;20743;-79
2021/08/02 04:57:10;;;;;;;5.50;4.80;;;15.80;99.90;;;;;;5070526;28;20395;-77
2021/08/02 04:59:35;;;;;;;7.80;4.83;;;15.80;99.90;;;;;;5070852;28;20381;-79
2021/08/02 05:02:01;;;;;;;5.43;4.60;;;15.80;99.90;;;;;;5071352;28;20504;-79
2021/08/02 05:04:27;;;;;;;6.53;4.50;;;15.90;99.90;;;;;;5071235;28;20878;-79
2021/08/02 05:06:52;;;;;;;6.03;4.20;;;16.10;99.90;;;;;;5071154;28;20370;-80
2021/08/02 05:09:18;;;;;;;6.50;4.13;;;16.30;99.90;;;;;;5071316;28;20382;-78
2021/08/02 05:11:43;;;;;;;8.65;4.60;;;16.30;99.90;;;;;;5071182;28;20418;-78
2021/08/02 05:14:09;;;;;;;6.10;3.90;;;16.10;99.90;;;;;;5071313;28;20938;-78
2021/08/02 05:16:34;;;;;;;5.47;4.30;;;16.60;99.90;;;;;;5052969;28;20964;-77
2021/08/02 05:19:00;;;;;;;6.77;4.40;;;16.60;99.90;;;;;;5071720;28;20744;-79
2021/08/02 05:21:26;;;;;;;5.47;4.43;;;16.60;99.90;;;;;;5071870;28;20423;-82
2021/08/02 05:23:52;;;;;;;7.80;4.13;;;16.60;99.90;;;;;;5071453;28;20382;-79
2021/08/02 05:26:18;;;;;;;8.05;4.53;;;16.70;99.90;;;;;;5071001;28;20385;-77
2021/08/02 05:28:44;;;;;;;8.10;4.03;;;16.70;99.90;;;;;;5070054;28;20374;-80
2021/08/02 05:31:09;;;;;;;4.53;4.13;;;16.70;99.90;;;;;;5070327;28;20398;-81
2021/08/02 05:33:35;;;;;;;5.43;4.23;;;16.60;99.90;;;;;;5070213;28;20405;-81
2021/08/02 05:36:03;;;;;;;6.07;3.92;;;16.50;99.90;;;;;;5070102;28;20370;-77
2021/08/02 05:38:29;;;;;;;6.32;4.07;;;16.50;99.90;;;;;;5051808;28;20416;-77
2021/08/02 05:40:55;;;;;;;7.65;4.45;;;16.70;99.90;;;;;;5052078;28;20887;-80
2021/08/02 05:43:21;;;;;;;6.38;4.28;;;16.70;99.90;;;;;;5070063;28;20384;-81
2021/08/02 05:45:47;;;;;;;6.47;3.87;;;16.80;99.90;;;;;;5069880;28;20367;-80
2021/08/02 05:48:12;;;;;;;6.47;4.20;;;16.80;99.90;;;;;;5069752;28;20741;-78
2021/08/02 05:50:38;;;;;;;7.40;4.32;;;16.80;99.90;;;;;;5069639;28;20449;-77
2021/08/02 05:53:04;;;;;;;6.90;3.80;;;16.70;99.90;;;;;;5051896;28;20366;-78
2021/08/02 05:55:29;;;;;;;6.88;3.97;;;16.70;99.90;;;;;;5069579;28;20375;-77
2021/08/02 05:57:55;;;;;;;5.93;3.40;;;16.70;99.90;;;;;;5069583;28;20409;-79
2021/08/02 06:00:20;;;;;;;7.10;3.70;;;16.70;99.90;;;;;;5069848;28;20863;-79
2021/08/02 06:02:46;;;;;;;6.73;3.60;;;16.70;99.90;;;;;;5069863;28;20374;-79
2021/08/02 06:05:12;;;;;;;6.15;3.67;;;16.70;99.90;;;;;;5069713;28;20883;-81
2021/08/02 06:07:41;;;;;;;7.37;3.50;;;16.60;99.90;;;;;;5069311;28;20385;-80
2021/08/02 06:10:08;;;;;;;6.78;3.55;;;16.60;99.90;;;;;;5069373;28;20378;-79
2021/08/02 06:12:34;;;;;;;8.57;3.63;;;16.60;99.90;;;;;;5069198;28;20424;-79
2021/08/02 06:14:59;;;;;;;5.50;3.53;;;16.70;99.90;;;;;;5069300;28;20465;-81
2021/08/02 06:17:25;;;;;;;6.80;3.45;;;16.70;99.90;;;;;;5069184;28;20405;-80
2021/08/02 06:19:50;;;;;;;7.27;3.60;;;16.80;99.90;;;;;;5069197;28;20835;-80
2021/08/02 06:22:16;;;;;;;4.60;3.00;;;16.90;99.90;;;;;;5069670;28;20399;-83
2021/08/02 06:24:42;;;;;;;7.53;3.33;;;16.90;99.90;;;;;;5069721;28;20370;-78
2021/08/02 06:27:08;;;;;;;5.78;3.28;;;17.10;99.90;;;;;;5070673;28;20473;-81
2021/08/02 06:29:34;;;;;;;4.30;2.60;;;17.30;99.90;;;;;;5069361;28;20461;-78
2021/08/02 06:32:00;;;;;;;4.93;2.88;;;17.40;99.90;;;;;;5051602;28;20389;-80
2021/08/02 06:34:25;;;;;;;7.22;3.35;;;17.50;99.90;;;;;;5069309;28;20374;-79
2021/08/02 06:36:51;;;;;;;4.30;2.90;;;17.70;99.90;;;;;;5069091;28;20863;-80
2021/08/02 06:39:16;;;;;;;5.80;3.40;;;17.70;99.90;;;;;;5068885;28;20370;-80
2021/08/02 06:41:42;;;;;;;6.25;2.90;;;17.90;99.90;;;;;;5069813;28;20474;-79
2021/08/02 06:44:07;;;;;;;5.67;3.00;;;18.00;99.90;;;;;;5070746;28;20373;-80
2021/08/02 06:46:33;;;;;;;8.43;2.92;;;18.20;99.90;;;;;;5070086;28;20887;-80
2021/08/02 06:48:58;;;;;;;6.80;3.20;;;18.30;99.90;;;;;;5070652;28;20386;-80
2021/08/02 06:51:24;;;;;;;4.57;2.55;;;18.30;99.90;;;;;;5070111;28;20377;-80
2021/08/02 06:53:50;;;;;;;3.93;2.57;;;18.40;99.90;;;;;;5070896;28;20702;-80
2021/08/02 06:56:15;;;;;;;4.93;2.47;;;18.70;99.90;;;;;;5070134;28;20392;-80
2021/08/02 06:58:41;;;;;;;6.30;2.60;;;19.00;99.90;;;;;;5069556;28;20413;-78
2021/08/02 07:01:07;;;;;;;4.03;2.10;;;19.00;99.90;;;;;;5069840;28;20890;-80
2021/08/02 07:03:32;;;;;;;4.73;2.03;;;19.20;99.90;;;;;;5069163;28;20445;-81
2021/08/02 07:05:58;;;;;;;3.77;1.90;;;19.10;99.90;;;;;;5051988;28;20465;-78
2021/08/02 07:08:23;;;;;;;5.22;2.20;;;19.70;99.90;;;;;;5051715;28;20378;-79
2021/08/02 07:10:49;;;;;;;4.87;1.90;;;19.30;99.90;;;;;;5064349;28;20379;-81
2021/08/02 07:13:15;;;;;;;4.05;1.88;;;19.30;99.90;;;;;;5068642;28;20374;-79
2021/08/02 07:15:41;;;;;;;4.40;1.80;;;19.50;99.90;;;;;;5068566;28;20468;-78
2021/08/02 07:18:06;;;;;;;5.20;1.70;;;19.50;99.90;;;;;;5068645;28;20413;-80
2021/08/02 07:20:32;;;;;;;4.03;1.98;;;19.50;99.90;;;;;;5067972;28;20851;-79
2021/08/02 07:22:57;;;;;;;8.10;2.07;;;19.70;99.90;;;;;;5068663;28;20437;-80
2021/08/02 07:25:23;;;;;;;6.22;2.08;;;19.90;99.90;;;;;;5049860;28;20390;-81
2021/08/02 07:27:49;;;;;;;5.90;1.83;;;20.10;99.90;;;;;;5049752;28;20374;-77
2021/08/02 07:30:14;;;;;;;4.85;2.08;;;19.90;99.90;;;;;;5067850;28;20532;-80
2021/08/02 07:32:40;;;;;;;7.10;1.90;;;19.50;99.90;;;;;;5068087;28;20728;-79
2021/08/02 07:35:06;;;;;;;6.05;2.17;;;19.20;99.90;;;;;;5069685;28;20382;-79
2021/08/02 07:37:32;;;;;;;5.67;2.20;;;18.80;99.90;;;;;;5071732;28;20963;-81
2021/08/02 07:39:57;;;;;;;5.80;2.22;;;18.10;99.90;;;;;;5071295;28;20544;-80
2021/08/02 07:42:23;;;;;;;4.77;2.13;;;18.60;99.90;;;;;;5071856;28;20398;-78
2021/08/02 07:44:50;;;;;;;5.47;2.42;;;18.90;99.90;;;;;;5069344;28;20385;-82
2021/08/02 07:47:16;;;;;;;4.68;2.40;;;19.30;99.90;;;;;;5054115;28;20469;-80
2021/08/02 07:49:42;;;;;;;6.43;2.38;;;19.70;99.90;;;;;;5072344;28;20374;-79
2021/08/02 07:52:07;;;;;;;6.07;2.27;;;20.10;99.90;;;;;;5071723;28;20393;-80
2021/08/02 07:54:33;;;;;;;5.05;2.08;;;20.50;99.90;;;;;;5071474;28;20465;-79
2021/08/02 07:56:58;;;;;;;6.50;2.53;;;20.40;99.90;;;;;;5071412;28;20728;-79
2021/08/02 07:59:24;;;;;;;5.60;2.10;;;20.10;99.90;;;;;;5071124;28;20394;-79
2021/08/02 08:01:50;;;;;;;5.47;2.07;;;20.60;99.90;;;;;;5071681;28;20377;-80
2021/08/02 08:04:15;;;;;;;6.17;2.10;;;20.60;99.90;;;;;;5071303;28;20888;-80
2021/08/02 08:06:43;;;;;;;6.43;2.10;;;20.40;99.90;;;;;;5071461;28;20886;-82
2021/08/02 08:09:08;;;;;;;4.15;1.70;;;20.10;99.90;;;;;;5071247;28;20374;-82
2021/08/02 08:11:34;;;;;;;6.73;1.50;;;20.10;99.90;;;;;;5070769;28;20382;-83
2021/08/02 08:13:59;;;;;;;2.45;1.58;;;20.60;99.90;;;;;;5071251;28;20380;-79
2021/08/02 08:16:25;;;;;;;4.10;1.70;;;20.80;99.90;;;;;;5071061;28;20416;-78
2021/08/02 08:18:51;;;;;;;4.22;1.60;;;21.20;99.90;;;;;;5071074;28;20390;-83
2021/08/02 08:21:16;;;;;;;3.33;1.58;;;21.40;99.90;;;;;;5071088;28;20382;-81
2021/08/02 08:23:42;;;;;;;6.45;2.10;;;21.10;99.90;;;;;;5071288;28;20401;-78
2021/08/02 08:26:07;;;;;;;3.87;1.80;;;20.90;99.90;;;;;;5072667;28;20410;-79
2021/08/02 08:28:33;;;;;;;4.07;1.77;;;21.30;99.90;;;;;;5071999;28;20408;-82
2021/08/02 08:30:58;;;;;;;4.40;1.73;;;21.40;99.90;;;;;;5072223;28;20428;-77
2021/08/02 08:33:27;;;;;;;4.60;2.13;;;21.40;99.90;;;;;;5072185;28;20381;-77
2021/08/02 08:35:57;;;;;;;5.70;1.73;;;21.30;99.90;;;;;;5053943;28;20466;-79
2021/08/02 08:38:23;;;;;;;3.17;1.75;;;21.10;99.90;;;;;;5060607;28;20413;-79
2021/08/02 08:40:49;;;;;;;3.88;1.67;;;20.90;99.90;;;;;;5052784;28;20897;-80
2021/08/02 08:43:17;;;;;;;3.88;1.63;;;20.80;99.90;;;;;;5058186;28;20402;-83
2021/08/02 08:45:43;;;;;;;4.22;1.70;;;21.10;99.90;;;;;;5072489;28;20374;-79
2021/08/02 08:48:09;;;;;;;3.40;1.70;;;20.50;99.90;;;;;;5043926;28;20387;-81
2021/08/02 08:50:38;;;;;;;3.90;1.67;;;20.10;99.90;;;;;;5049537;28;20388;-82
2021/08/02 08:53:04;;;;;;;5.15;1.67;;;19.80;99.90;;;;;;5049084;28;20484;-81
2021/08/02 08:55:30;;;;;;;2.78;1.50;;;19.60;99.90;;;;;;5049867;28;20486;-80
2021/08/02 08:57:59;;;;;;;3.38;1.63;;;19.70;99.90;;;;;;5049537;28;20553;-78
2021/08/02 09:00:27;;;;;;;4.20;1.80;;;20.10;99.90;;;;;;5060565;28;20397;-79
2021/08/02 09:02:54;;;;;;;6.72;1.80;;;20.60;99.90;;;;;;5070784;28;20378;-80
2021/08/02 09:05:20;;;;;;;5.43;1.80;;;20.70;99.90;;;;;;5069804;28;20385;-80
2021/08/02 09:07:47;;;;;;;4.47;1.73;;;21.10;99.90;;;;;;5069294;28;20382;-82
2021/08/02 09:10:17;;;;;;;5.77;1.43;;;21.50;99.90;;;;;;5068595;28;20481;-82
2021/08/02 09:12:52;;;;;;;4.28;1.50;;;21.30;99.90;;;;;;5070220;28;20398;-80
2021/08/02 09:15:29;;;;;;;4.57;1.60;;;21.00;99.90;;;;;;5070370;28;21167;-78
2021/08/02 09:17:55;;;;;;;3.92;1.50;;;20.90;99.90;;;;;;5070021;28;20398;-80
2021/08/02 09:20:22;;;;;;;6.60;1.40;;;21.00;99.90;;;;;;5068304;28;20386;-77
2021/08/02 09:22:49;;;;;;;3.35;1.63;;;21.00;99.90;;;;;;5068809;28;20458;-84
2021/08/02 09:25:24;;;;;;;3.95;1.60;;;20.80;99.90;;;;;;5055856;28;20478;-83
2021/08/02 09:27:51;;;;;;;3.00;1.33;;;20.70;99.90;;;;;;5069514;28;20395;-82
2021/08/02 09:30:26;;;;;;;4.20;1.60;;;21.00;99.90;;;;;;5071977;28;20382;-78
2021/08/02 09:33:07;;;;;;;3.30;1.40;;;21.00;99.90;;;;;;5076278;28;20386;-79
2021/08/02 09:35:42;;;;;;;3.92;1.63;;;21.20;99.90;;;;;;5057934;28;20860;-80
2021/08/02 09:38:10;;;;;;;2.97;1.20;;;20.90;99.90;;;;;;5076581;28;20743;-77
2021/08/02 09:40:49;;;;;;;5.20;1.42;;;20.60;99.90;;;;;;5074720;28;20402;-80
2021/08/02 09:43:22;;;;;;;3.90;1.50;;;20.30;99.90;;;;;;5072276;28;20376;-82
2021/08/02 09:45:56;;;;;;;3.92;1.67;;;19.70;99.90;;;;;;5074439;28;20408;-81
2021/08/02 09:48:36;;;;;;;4.82;1.70;;;20.00;99.90;;;;;;5069379;28;20966;-78
2021/08/02 09:51:07;;;;;;;4.88;1.55;;;19.30;99.90;;;;;;5048734;28;20378;-82
2021/08/02 09:53:47;;;;;;;3.35;1.30;;;20.00;99.90;;;;;;5049703;28;20398;-82
2021/08/02 09:56:16;;;;;;;4.22;1.40;;;20.10;99.90;;;;;;5066341;28;20377;-81
2021/08/02 09:58:43;;;;;;;4.15;1.60;;;20.40;99.90;;;;;;5066012;28;20425;-79
2021/08/02 10:01:11;;;;;;;4.47;1.60;;;20.60;99.90;;;;;;5068779;28;20457;-78
2021/08/02 10:03:38;;;;;;;6.20;1.50;;;20.70;99.90;;;;;;5066433;28;20389;-78
2021/08/02 10:06:05;;;;;;;5.70;1.83;;;21.00;99.90;;;;;;5042382;28;20447;-82
2021/08/02 10:08:41;;;;;;;4.85;1.50;;;21.10;99.90;;;;;;5050518;28;20473;-79
2021/08/02 10:11:15;;;;;;;4.03;1.40;;;21.20;99.90;;;;;;5053511;28;20471;-81
2021/08/02 10:13:43;;;;;;;3.55;1.38;;;21.20;99.90;;;;;;5057858;28;20985;-81
2021/08/02 10:16:15;;;;;;;4.03;1.60;;;21.10;99.90;;;;;;5075465;28;20390;-80
2021/08/02 10:18:47;;;;;;;5.25;1.40;;;21.00;99.90;;;;;;5056933;28;20414;-80
2021/08/02 10:21:14;;;;;;;3.70;1.30;;;21.00;99.90;;;;;;5076454;28;20372;-81
2021/08/02 10:23:41;;;;;;;3.75;1.20;;;21.10;99.90;;;;;;5075387;28;20380;-79
2021/08/02 10:26:24;;;;;;;4.90;1.30;;;21.40;99.90;;;;;;5060297;28;20416;-82
2021/08/02 10:28:58;;;;;;;6.63;1.42;;;21.60;99.90;;;;;;5074712;28;20891;-80
2021/08/02 10:31:27;;;;;;;3.78;1.30;;;21.70;99.90;;;;;;5074142;28;20381;-81
2021/08/02 10:33:57;;;;;;;4.85;1.55;;;21.80;99.90;;;;;;5075869;28;20368;-82
2021/08/02 10:36:23;;;;;;;5.22;1.35;;;21.90;99.90;;;;;;5074867;28;20424;-81
2021/08/02 10:38:52;;;;;;;5.32;1.50;;;21.70;99.90;;;;;;5072460;28;20450;-80
2021/08/02 10:41:31;;;;;;;5.85;1.20;;;21.60;99.90;;;;;;5070945;28;20369;-79
2021/08/02 10:44:19;;;;;;;2.40;1.23;;;21.70;99.90;;;;;;5072903;28;20945;-82
2021/08/02 10:46:45;;;;;;;4.20;1.30;;;22.00;99.90;;;;;;5075545;28;20406;-83
2021/08/02 10:49:13;;;;;;;3.40;1.30;;;22.30;99.90;;;;;;5056127;28;20475;-83
2021/08/02 10:51:54;;;;;;;4.55;1.20;;;22.30;99.90;;;;;;5075178;28;20453;-80
2021/08/02 10:54:19;;;;;;;6.68;1.70;;;22.30;99.90;;;;;;5071617;28;20496;-78
2021/08/02 10:56:50;;;;;;;6.50;1.40;;;22.20;99.90;;;;;;5056451;28;20472;-79
2021/08/02 10:59:20;;;;;;;3.83;1.42;;;22.20;99.90;;;;;;5056906;28;21138;-79
2021/08/02 11:01:53;;;;;;;3.55;1.45;;;22.10;99.90;;;;;;5059805;28;20371;-80
2021/08/02 11:04:20;;;;;;;4.95;1.35;;;21.80;99.90;;;;;;5058034;28;20483;-80
2021/08/02 11:06:46;;;;;;;4.03;1.20;;;21.60;99.90;;;;;;5048696;28;20382;-80
2021/08/02 11:09:13;;;;;;;3.10;1.40;;;21.80;99.90;;;;;;5043350;28;20402;-81
2021/08/02 11:11:40;;;;;;;5.57;1.45;;;;;;;;;;5072354;28;20370;-82
2021/08/02 11:14:13;;;;;;;4.63;1.38;;;22.50;99.90;;;;;;5044069;28;20385;-84
2021/08/02 11:16:51;;;;;;;4.15;1.63;;;;;;;;;;5062314;28;20959;-80
2021/08/02 11:19:31;;;;;;;3.38;1.60;;;22.70;99.20;;;;;;5062520;28;20506;-81
2021/08/02 11:22:02;;;;;;;3.05;1.30;;;23.00;97.00;;;;;;5061865;28;20383;-82
2021/08/02 11:24:33;;;;;;;3.38;1.65;;;23.20;97.50;;;;;;5063365;28;20374;-82
2021/08/02 11:27:02;;;;;;;3.03;1.60;;;23.10;96.10;;;;;;5045219;28;20389;-82
2021/08/02 11:29:29;;;;;;;6.18;1.50;;;22.80;97.10;;;;;;5066005;28;20378;-81
2021/08/02 11:32:12;;;;;;;3.95;1.60;;;22.80;99.00;;;;;;5063034;28;20372;-81
2021/08/02 11:34:42;;;;;;;6.97;1.55;;;23.10;97.20;;;;;;5060292;28;20440;-79
2021/08/02 11:37:15;;;;;;;3.83;1.30;;;23.20;99.90;;;;;;5061563;28;20879;-80
2021/08/02 11:39:44;;;;;;;5.82;1.40;;;22.90;99.90;;;;;;5062712;28;20468;-84
2021/08/02 11:42:14;;;;;;;3.67;1.40;;;22.70;97.30;;;;;;5073418;28;20362;-80
2021/08/02 11:44:43;;;;;;;4.68;1.40;;;22.90;97.60;;;;;;5077616;28;20462;-81
2021/08/02 11:47:16;;;;;;;6.10;1.35;;;23.20;97.60;;;;;;5074050;28;20382;-82
2021/08/02 11:49:43;;;;;;;5.93;1.50;;;23.20;95.50;;;;;;5077745;28;20374;-81
2021/08/02 11:52:09;;;;;;;3.17;1.25;;;23.30;97.00;;;;;;5074959;28;20418;-81
2021/08/02 11:54:37;;;;;;;2.60;1.40;;;23.80;95.40;;;;;;5075909;28;20378;-81
2021/08/02 11:57:03;;;;;;;2.40;1.43;;;23.80;95.60;;;;;;5074436;28;20422;-83
2021/08/02 11:59:30;;;;;;;3.45;1.38;;;24.00;94.30;;;;;;5054624;28;20392;-81
2021/08/02 12:01:57;;;;;;;4.00;1.10;;;;;;;;;;5078140;28;20381;-80
2021/08/02 12:04:23;;;;;;;5.00;1.27;;;;;;;;;;5077739;28;20447;-80
2021/08/02 12:06:50;;;;;;;6.80;1.60;;;;;;;;;;5076753;28;20613;-81
2021/08/02 12:09:16;;;;;;;4.20;1.50;;;;;;;;;;5077860;28;20447;-79
2021/08/02 12:11:45;;;;;;;1.83;1.40;;;;;;;;;;5067534;28;20381;-79
2021/08/02 12:14:11;;;;;;;3.42;1.63;;;;;;;;;;5092118;28;20373;-82
2021/08/02 12:16:38;;;;;;;3.00;1.50;;;;;;;;;;5074139;28;20360;-79
2021/08/02 12:19:07;;;;;;;4.38;1.75;;;;;;;;;;5072514;28;20447;-81
2021/08/02 12:21:33;;;;;;;5.05;1.75;;;;;;;;;;5091943;28;20365;-82
2021/08/02 12:24:04;;;;;;;3.73;1.57;;;;;;;;;;5092059;28;20372;-79
2021/08/02 12:26:30;;;;;;;3.25;1.70;;;;;;;;;;5072500;28;20873;-82
2021/08/02 12:28:56;;;;;;;3.65;1.50;;;;;;;;;;5044413;28;20403;-80
2021/08/02 12:31:23;;;;;;;3.33;1.25;;;;;;;;;;5061557;28;20370;-79
2021/08/02 12:33:50;;;;;;;3.63;1.65;;;;;;;;;;5057531;28;20390;-83
2021/08/02 12:36:16;;;;;;;2.42;1.35;;;;;;;;;;5057599;28;20429;-80
2021/08/02 12:38:43;;;;;;;4.88;1.65;;;;;;;;;;5059542;28;20446;-80
2021/08/02 12:41:10;;;;;;;4.90;1.60;;;;;;;;;;5058356;28;20721;-81
2021/08/02 12:43:36;;;;;;;3.92;1.40;;;;;;;;;;5043716;28;20390;-80
2021/08/02 12:46:02;;;;;;;2.70;1.30;;;;;;;;;;5058732;28;20775;-80
2021/08/02 12:48:28;;;;;;;4.10;1.55;;;;;;;;;;5060410;28;20378;-81
2021/08/02 12:50:54;;;;;;;2.60;1.10;;;;;;;;;;5042761;28;20375;-83
2021/08/02 12:53:20;;;;;;;4.57;1.45;;;;;;;;;;5059334;28;20376;-80
2021/08/02 12:55:46;;;;;;;3.50;1.30;;;;;;;;;;5038358;28;20475;-82